.
WxDataArchive / Data Records for 2008-01-30
2008-01-29 January 2008 2008-01-31

Data Records for Wednesday, 30 January 2008

Time	Temp	Chill	HIndex	Humid	Dewpt	 Wind 	HiWind	WindDir	Rain 	Barom 
-----	----	-----	------	-----	-----	------	------	-------	-----	----- 
00:00	14.3	1.1	14.3	67	5.4	11	27	270	0.00	29.339 
00:05	13.8	1.2	13.8	67	4.9	10	24	270	0.00	29.342 
00:10	13.8	1.2	13.8	67	4.9	10	23	270	0.00	29.351 
00:15	13.5	1.5	13.5	67	4.6	9	23	270	0.00	29.358 
00:20	12.9	0.1	12.9	69	4.7	10	21	270	0.00	29.368 
00:25	12.8	2.4	12.8	69	4.6	7	22	270	0.00	29.373 
00:30	12.6	1.2	12.6	69	4.4	8	18	270	0.00	29.376 
00:35	12.3	-0.7	12.3	69	4.1	10	23	270	0.00	29.385 
00:40	12.1	0.6	12.1	72	4.8	8	20	270	0.00	29.389 
00:45	11.6	-0.8	11.6	69	3.4	9	19	270	0.00	29.403 
00:50	11.4	-1.8	11.4	69	3.2	10	25	270	0.00	29.408 
00:55	11.2	-0.5	11.2	70	3.4	8	19	270	0.00	29.409 
01:00	11.1	0.3	11.1	71	3.6	7	16	270	0.00	29.416 
01:05	10.9	0.1	10.9	71	3.4	7	16	270	0.00	29.420 
01:10	10.5	-2.2	10.5	69	2.4	9	20	270	0.00	29.422 
01:15	10.2	-4.0	10.2	64	0.5	11	25	270	0.00	29.428 
01:20	10.2	-3.3	10.2	62	-0.2	10	22	270	0.00	29.437 
01:25	10.2	-1.7	10.2	64	0.5	8	18	270	0.00	29.441 
01:30	10.0	-3.5	10.0	65	0.6	10	21	270	0.00	29.445 
01:35	9.9	-2.1	9.9	66	0.8	8	17	270	0.00	29.451 
01:40	9.7	-3.1	9.7	63	-0.3	9	23	270	0.00	29.459 
01:45	9.3	-1.9	9.3	64	-0.4	7	18	270	0.00	29.469 
01:50	9.3	-0.8	9.3	66	0.3	6	15	270	0.00	29.473 
01:55	9.2	-0.9	9.2	67	0.5	6	19	270	0.00	29.482 
02:00	9.2	-0.9	9.2	67	0.5	6	20	270	0.00	29.487 
02:05	9.0	-1.2	9.0	66	-0.0	6	13	270	0.00	29.488 
02:10	8.8	-2.5	8.8	69	0.7	7	18	270	0.00	29.501 
02:15	8.8	-0.2	8.8	73	1.9	5	12	270	0.00	29.502 
02:20	8.6	-2.7	8.6	74	2.0	7	19	270	0.00	29.508 
02:25	8.6	-2.7	8.6	71	1.2	7	16	270	0.00	29.516 
02:30	8.6	-2.7	8.6	71	1.2	7	17	270	0.00	29.525 
02:35	8.6	-4.5	8.6	70	0.9	9	20	270	0.00	29.529 
02:40	8.4	-3.9	8.4	67	-0.3	8	18	270	0.00	29.536 
02:45	8.4	-4.7	8.4	66	-0.6	9	19	270	0.00	29.544 
02:50	8.3	-4.9	8.3	66	-0.7	9	22	270	0.00	29.552 
02:55	8.3	-4.9	8.3	67	-0.4	9	22	270	0.00	29.554 
03:00	8.4	-3.9	8.4	66	-0.6	8	22	270	0.00	29.562 
03:05	8.4	-1.9	8.4	68	0.0	6	20	270	0.00	29.564 
03:10	8.3	-4.9	8.3	71	0.9	9	23	270	0.00	29.569 
03:15	7.9	-6.9	7.9	67	-0.7	11	26	270	0.00	29.579 
03:20	7.9	-6.1	7.9	63	-2.0	10	27	270	0.00	29.580 
03:25	7.9	-4.5	7.9	63	-2.0	8	15	270	0.00	29.589 
03:30	7.9	-2.5	7.9	64	-1.7	6	14	270	0.00	29.595 
03:35	7.7	-4.7	7.7	66	-1.3	8	24	270	0.00	29.603 
03:40	7.7	-4.7	7.7	68	-0.6	8	16	270	0.00	29.603 
03:45	7.7	-1.5	7.7	69	-0.3	5	15	270	0.00	29.612 
03:50	7.7	-4.7	7.7	68	-0.6	8	18	270	0.00	29.617 
03:55	7.4	-6.8	7.4	70	-0.3	10	23	270	0.00	29.627 
04:00	7.0	-5.6	7.0	74	0.5	8	19	270	0.00	29.634 
04:05	6.9	-4.8	6.9	75	0.7	7	16	270	0.00	29.639 
04:10	6.7	-6.8	6.7	73	-0.1	9	22	270	0.00	29.644 
04:15	6.5	-7.9	6.5	67	-2.1	10	20	270	0.00	29.647 
04:20	6.5	-5.2	6.5	70	-1.2	7	15	270	0.00	29.652 
04:25	6.5	-4.1	6.5	69	-1.5	6	13	270	0.00	29.656 
04:30	6.5	-6.2	6.5	65	-2.7	8	15	270	0.00	29.660 
04:35	6.5	-7.1	6.5	64	-3.0	9	24	270	0.00	29.662 
04:40	6.5	-5.2	6.5	65	-2.7	7	17	270	0.00	29.672 
04:45	6.5	-5.2	6.5	66	-2.4	7	17	270	0.00	29.679 
04:50	6.7	-8.4	6.7	65	-2.5	11	32	270	0.00	29.679 
04:55	6.7	-5.0	6.7	65	-2.5	7	16	270	0.00	29.690 
05:00	6.7	-6.0	6.7	65	-2.5	8	19	270	0.00	29.696 
05:05	6.7	-5.0	6.7	68	-1.6	7	20	270	0.00	29.701 
05:10	6.7	-2.6	6.7	67	-1.9	5	15	270	0.00	29.704 
05:15	6.7	-5.0	6.7	67	-1.9	7	13	270	0.00	29.706 
05:20	6.7	-5.0	6.7	64	-2.9	7	25	270	0.00	29.708 
05:25	6.7	-5.0	6.7	64	-2.9	7	16	270	0.00	29.723 
05:30	6.7	-6.0	6.7	63	-3.2	8	22	270	0.00	29.724 
05:35	6.7	-3.9	6.7	64	-2.9	6	15	270	0.00	29.729 
05:40	6.7	-2.6	6.7	65	-2.5	5	15	270	0.00	29.738 
05:45	6.7	-3.9	6.7	63	-3.2	6	15	270	0.00	29.738 
05:50	6.7	-5.0	6.7	61	-3.9	7	19	270	0.00	29.740 
05:55	6.7	-3.9	6.7	60	-4.2	6	14	270	0.00	29.749 
06:00	6.5	-4.1	6.5	59	-4.7	6	16	270	0.00	29.751 
06:05	6.7	-1.1	6.7	60	-4.2	4	10	270	0.00	29.753 
06:10	6.7	-1.1	6.7	62	-3.5	4	10	270	0.00	29.763 
06:15	6.7	-3.9	6.7	63	-3.2	6	16	270	0.00	29.770 
06:20	6.5	-4.1	6.5	64	-3.0	6	15	270	0.00	29.770 
06:25	6.7	-3.9	6.7	63	-3.2	6	13	270	0.00	29.785 
06:30	6.7	-3.9	6.7	61	-3.9	6	15	270	0.00	29.783 
06:35	6.7	-5.0	6.7	60	-4.2	7	15	270	0.00	29.786 
06:40	6.7	-1.1	6.7	61	-3.9	4	10	270	0.00	29.785 
06:45	6.7	-2.6	6.7	62	-3.5	5	17	270	0.00	29.796 
06:50	6.7	-2.6	6.7	62	-3.5	5	14	270	0.00	29.799 
06:55	6.5	-4.1	6.5	62	-3.7	6	16	270	0.00	29.807 
07:00	6.5	-5.2	6.5	62	-3.7	7	17	270	0.00	29.814 
07:05	6.5	-4.1	6.5	62	-3.7	6	14	270	0.00	29.817 
07:10	6.3	-4.4	6.3	62	-3.9	6	17	270	0.00	29.818 
07:15	6.3	-4.4	6.3	62	-3.9	6	13	270	0.00	29.826 
07:20	6.3	-1.6	6.3	62	-3.9	4	12	270	0.00	29.829 
07:25	6.3	-3.1	6.3	62	-3.9	5	14	270	0.00	29.831 
07:30	6.3	6.3	6.3	62	-3.9	3	11	270	0.00	29.834 
07:35	6.3	-1.6	6.3	62	-3.9	4	12	270	0.00	29.834 
07:40	6.1	-1.8	6.1	63	-3.8	4	10	270	0.00	29.844 
07:45	6.1	-1.8	6.1	62	-4.1	4	16	270	0.00	29.848 
07:50	6.1	-3.3	6.1	62	-4.1	5	18	270	0.00	29.862 
07:55	6.1	-1.8	6.1	62	-4.1	4	10	270	0.00	29.871 
08:00	6.1	-4.6	6.1	61	-4.4	6	13	270	0.00	29.874 
08:05	6.1	-4.6	6.1	60	-4.8	6	15	270	0.00	29.882 
08:10	6.1	-3.3	6.1	61	-4.4	5	13	270	0.00	29.878 
08:15	6.1	-4.6	6.1	59	-5.1	6	17	270	0.00	29.881 
08:20	6.1	-1.8	6.1	60	-4.8	4	10	270	0.00	29.883 
08:25	6.3	-1.6	6.3	60	-4.6	4	13	270	0.00	29.888 
08:30	6.3	-3.1	6.3	61	-4.2	5	16	270	0.00	29.897 
08:35	6.3	-4.4	6.3	60	-4.6	6	14	270	0.00	29.900 
08:40	6.3	-5.5	6.3	58	-5.3	7	15	270	0.00	29.902 
08:45	6.3	-4.4	6.3	57	-5.6	6	18	270	0.00	29.910 
08:50	6.5	-5.2	6.5	56	-5.8	7	20	270	0.00	29.911 
08:55	6.5	-4.1	6.5	53	-6.9	6	16	270	0.00	29.914 
09:00	6.9	-0.9	6.9	54	-6.2	4	12	270	0.00	29.906 
09:05	6.9	-2.4	6.9	54	-6.2	5	15	270	0.00	29.919 
09:10	7.0	-0.8	7.0	55	-5.7	4	11	270	0.00	29.922 
09:15	7.2	-2.1	7.2	56	-5.2	5	15	270	0.00	29.923 
09:20	7.0	-3.5	7.0	57	-5.0	6	21	270	0.00	29.924 
09:25	7.2	-0.6	7.2	58	-4.4	4	10	270	0.00	29.924 
09:30	7.4	-1.8	7.4	58	-4.2	5	12	270	0.00	29.928 
09:35	7.7	0.0	7.7	58	-4.0	4	13	270	0.00	29.933 
09:40	7.9	-1.2	7.9	57	-4.1	5	14	270	0.00	29.936 
09:45	7.9	-1.2	7.9	56	-4.5	5	11	270	0.00	29.938 
09:50	8.1	-1.0	8.1	55	-4.7	5	12	270	0.00	29.946 
09:55	7.9	-1.2	7.9	54	-5.3	5	13	270	0.00	29.949 
10:00	8.3	8.3	8.3	55	-4.5	3	11	270	0.00	29.954 
10:05	8.4	0.8	8.4	54	-4.8	4	10	270	0.00	29.970 
10:10	8.4	0.8	8.4	54	-4.8	4	11	270	0.00	29.973 
10:15	8.4	-1.9	8.4	54	-4.8	6	19	270	0.00	29.976 
10:20	8.6	1.0	8.6	56	-3.8	4	10	270	0.00	29.978 
10:25	8.6	-2.7	8.6	56	-3.8	7	13	270	0.00	29.982 
10:30	8.8	-0.2	8.8	57	-3.3	5	13	270	0.00	29.983 
10:35	9.2	1.7	9.2	57	-2.9	4	13	270	0.00	29.985 
10:40	9.3	1.9	9.3	57	-2.8	4	11	270	0.00	29.994 
10:45	9.7	9.7	9.7	57	-2.4	3	9	270	0.00	29.996 
10:50	9.9	1.1	9.9	55	-3.0	5	15	270	0.00	29.996 
10:55	10.0	2.7	10.0	57	-2.2	4	10	270	0.00	29.997 
11:00	10.0	2.7	10.0	54	-3.3	4	13	270	0.00	30.002 
11:05	9.9	-0.1	9.9	54	-3.4	6	15	270	0.00	30.018 
11:10	9.9	2.5	9.9	55	-3.0	4	11	270	0.00	30.021 
11:15	10.2	1.5	10.2	55	-2.7	5	14	270	0.00	30.025 
11:20	10.4	1.7	10.4	56	-2.2	5	11	270	0.00	30.033 
11:25	10.9	3.7	10.9	55	-2.1	4	11	270	0.00	30.037 
11:30	10.7	0.9	10.7	53	-3.0	6	14	270	0.00	30.041 
11:35	10.9	3.7	10.9	56	-1.7	4	18	270	0.00	30.047 
11:40	10.5	0.6	10.5	54	-2.8	6	22	270	0.00	30.049 
11:45	10.4	0.5	10.4	53	-3.3	6	17	270	0.00	30.053 
11:50	10.9	2.3	10.9	54	-2.4	5	14	270	0.00	30.058 
11:55	11.2	2.6	11.2	54	-2.2	5	15	270	0.00	30.062 
12:00	11.7	4.6	11.7	55	-1.3	4	16	270	0.00	30.063 
12:05	11.2	2.6	11.2	54	-2.2	5	15	248	0.00	30.064 
12:10	11.4	4.3	11.4	55	-1.6	4	13	270	0.00	30.057 
12:15	11.9	4.9	11.9	56	-0.7	4	10	270	0.00	30.062 
12:20	11.6	3.1	11.6	55	-1.4	5	12	270	0.00	30.065 
12:25	11.7	3.2	11.7	55	-1.3	5	14	270	0.00	30.069 
12:30	11.7	3.2	11.7	54	-1.7	5	13	270	0.00	30.070 
12:35	12.3	5.3	12.3	55	-0.7	4	11	270	0.00	30.074 
12:40	12.3	3.9	12.3	54	-1.1	5	14	270	0.00	30.076 
12:45	12.3	5.3	12.3	55	-0.7	4	13	270	0.00	30.078 
12:50	12.8	5.9	12.8	54	-0.7	4	11	270	0.00	30.081 
12:55	12.6	3.1	12.6	54	-0.9	6	15	270	0.00	30.083 
13:00	12.9	6.0	12.9	56	0.2	4	10	270	0.00	30.083 
13:05	12.9	4.6	12.9	53	-1.0	5	14	270	0.00	30.084 
13:10	13.5	13.5	13.5	56	0.8	3	11	270	0.00	30.086 
13:15	13.5	5.3	13.5	55	0.4	5	12	270	0.00	30.084 
13:20	13.6	6.8	13.6	54	0.1	4	12	270	0.00	30.085 
13:25	14.1	7.4	14.1	54	0.5	4	9	270	0.00	30.086 
13:30	14.3	14.3	14.3	55	1.1	3	9	248	0.00	30.081 
13:35	14.4	7.7	14.4	55	1.2	4	10	270	0.00	30.086 
13:40	13.8	4.6	13.8	53	-0.1	6	15	248	0.00	30.086 
13:45	13.8	5.7	13.8	54	0.3	5	11	270	0.00	30.087 
13:50	14.0	4.8	14.0	53	0.1	6	15	270	0.00	30.087 
13:55	14.3	6.3	14.3	52	-0.1	5	16	270	0.00	30.089 
14:00	14.6	14.6	14.6	54	1.0	3	14	270	0.00	30.087 
14:05	14.6	8.0	14.6	54	1.0	4	12	270	0.00	30.095 
14:10	14.6	6.6	14.6	54	1.0	5	14	270	0.00	30.098 
14:15	14.9	14.9	14.9	54	1.3	3	9	270	0.00	30.099 
14:20	15.4	8.9	15.4	53	1.4	4	13	270	0.00	30.102 
14:25	15.2	8.7	15.2	53	1.2	4	11	270	0.00	30.105 
14:30	15.2	7.3	15.2	53	1.2	5	12	270	0.00	30.107 
14:35	15.4	8.9	15.4	52	1.0	4	15	270	0.00	30.110 
14:40	15.6	9.1	15.6	53	1.6	4	12	270	0.00	30.112 
14:45	15.4	7.6	15.4	53	1.4	5	13	270	0.00	30.109 
14:50	15.6	15.6	15.6	53	1.6	3	11	270	0.00	30.112 
14:55	16.1	16.1	16.1	54	2.4	3	7	270	0.00	30.113 
15:00	15.7	7.9	15.7	50	0.4	5	12	270	0.00	30.113 
15:05	15.6	9.1	15.6	53	1.6	4	14	270	0.00	30.117 
15:10	15.9	9.5	15.9	54	2.2	4	14	248	0.00	30.117 
15:15	16.1	9.7	16.1	53	2.0	4	12	270	0.00	30.118 
15:20	16.1	9.7	16.1	53	2.0	4	11	270	0.00	30.122 
15:25	16.4	16.4	16.4	54	2.7	3	7	270	0.00	30.127 
15:30	16.5	8.9	16.5	52	2.0	5	14	270	0.00	30.129 
15:35	16.4	10.1	16.4	52	1.9	4	14	270	0.00	30.135 
15:40	16.7	16.7	16.7	53	2.6	3	10	270	0.00	30.132 
15:45	16.5	7.8	16.5	49	0.7	6	18	270	0.00	30.138 
15:50	16.5	8.9	16.5	51	1.6	5	14	270	0.00	30.142 
15:55	16.5	16.5	16.5	52	2.0	3	10	270	0.00	30.144 
16:00	16.7	9.1	16.7	53	2.6	5	12	248	0.00	30.147 
16:05	16.7	9.1	16.7	51	1.8	5	13	248	0.00	30.148 
16:10	16.7	9.1	16.7	50	1.3	5	12	270	0.00	30.149 
16:15	16.9	10.6	16.9	51	1.9	4	11	270	0.00	30.152 
16:20	16.7	10.4	16.7	50	1.3	4	11	270	0.00	30.157 
16:25	16.5	16.5	16.5	51	1.6	3	9	270	0.00	30.162 
16:30	16.4	10.1	16.4	51	1.5	4	15	270	0.00	30.165 
16:35	16.4	10.1	16.4	50	1.1	4	15	270	0.00	30.166 
16:40	16.2	9.8	16.2	50	0.9	4	15	270	0.00	30.165 
16:45	16.2	9.8	16.2	50	0.9	4	14	270	0.00	30.169 
16:50	16.1	16.1	16.1	50	0.8	3	10	270	0.00	30.167 
16:55	15.9	7.1	15.9	51	1.0	6	17	270	0.00	30.173 
17:00	15.9	15.9	15.9	53	1.8	3	12	248	0.00	30.174 
17:05	16.1	16.1	16.1	53	2.0	2	13	248	0.00	30.178 
17:10	15.7	9.2	15.7	52	1.2	4	14	270	0.00	30.181 
17:15	15.6	15.6	15.6	51	0.7	3	13	270	0.00	30.181 
17:20	15.4	15.4	15.4	52	1.0	3	10	270	0.00	30.181 
17:25	15.1	15.1	15.1	53	1.1	3	11	270	0.00	30.185 
17:30	15.1	15.1	15.1	54	1.5	2	6	270	0.00	30.190 
17:35	14.9	14.9	14.9	55	1.7	1	5	270	0.00	30.196 
17:40	14.9	14.9	14.9	55	1.7	3	9	270	0.00	30.197 
17:45	14.8	14.8	14.8	55	1.6	3	10	270	0.00	30.200 
17:50	14.8	8.2	14.8	55	1.6	4	12	270	0.00	30.201 
17:55	14.6	14.6	14.6	57	2.2	2	5	270	0.00	30.208 
18:00	14.4	14.4	14.4	58	2.4	1	5	248	0.00	30.211 
18:05	14.4	14.4	14.4	59	2.7	2	10	270	0.00	30.212 
18:10	14.4	14.4	14.4	59	2.7	1	6	248	0.00	30.210 
18:15	14.4	14.4	14.4	59	2.7	1	4	248	0.00	30.212 
18:20	14.3	14.3	14.3	58	2.3	3	7	248	0.00	30.213 
18:25	14.3	14.3	14.3	58	2.3	2	5	248	0.00	30.215 
18:30	14.3	14.3	14.3	59	2.6	1	5	248	0.00	30.216 
18:35	14.3	14.3	14.3	59	2.6	2	6	248	0.00	30.222 
18:40	14.1	14.1	14.1	60	2.8	1	5	248	0.00	30.225 
18:45	14.1	14.1	14.1	60	2.8	1	6	248	0.00	30.229 
18:50	14.1	14.1	14.1	61	3.2	1	4	248	0.00	30.230 
18:55	14.1	14.1	14.1	61	3.2	1	2	248	0.00	30.230 
19:00	14.1	14.1	14.1	61	3.2	1	4	248	0.00	30.230 
19:05	14.0	14.0	14.0	62	3.4	1	5	248	0.00	30.232 
19:10	14.1	14.1	14.1	62	3.5	1	5	248	0.00	30.232 
19:15	14.0	14.0	14.0	62	3.4	0	3	248	0.00	30.236 
19:20	14.0	14.0	14.0	63	3.8	1	3	248	0.00	30.241 
19:25	14.0	14.0	14.0	63	3.8	0	2	248	0.00	30.242 
19:30	13.8	13.8	13.8	64	3.9	0	4	248	0.00	30.244 
19:35	13.8	13.8	13.8	63	3.6	1	4	248	0.00	30.246 
19:40	13.8	13.8	13.8	63	3.6	0	3	248	0.00	30.248 
19:45	13.8	13.8	13.8	63	3.6	0	2	248	0.00	30.249 
19:50	13.8	13.8	13.8	63	3.6	0	3	248	0.00	30.253 
19:55	13.8	13.8	13.8	63	3.6	0	2	248	0.00	30.258 
20:00	13.8	13.8	13.8	63	3.6	0	2	248	0.00	30.263 
20:05	13.6	13.6	13.6	64	3.7	0	2	248	0.00	30.267 
20:10	13.6	13.6	13.6	64	3.7	0	2	248	0.00	30.271 
20:15	13.6	13.6	13.6	65	4.1	0	2	248	0.00	30.279 
20:20	13.6	13.6	13.6	64	3.7	1	7	248	0.00	30.286 
20:25	13.8	13.8	13.8	64	3.9	1	5	248	0.00	30.291 
20:30	13.8	13.8	13.8	65	4.2	0	2	225	0.00	30.292 
20:35	13.6	13.6	13.6	65	4.1	0	4	248	0.00	30.291 
20:40	13.6	13.6	13.6	65	4.1	0	5	248	0.00	30.294 
20:45	13.6	13.6	13.6	65	4.1	0	3	248	0.00	30.297 
20:50	13.6	13.6	13.6	65	4.1	1	6	248	0.00	30.303 
20:55	13.6	13.6	13.6	65	4.1	0	2	248	0.00	30.304 
21:00	13.6	13.6	13.6	66	4.4	1	4	248	0.00	30.305 
21:05	13.5	13.5	13.5	66	4.3	0	2	248	0.00	30.304 
21:10	13.5	13.5	13.5	66	4.3	0	2	248	0.00	30.304 
21:15	13.5	13.5	13.5	66	4.3	0	2	248	0.00	30.303 
21:20	13.5	13.5	13.5	66	4.3	0	4	248	0.00	30.305 
21:25	13.5	13.5	13.5	66	4.3	0	3	270	0.00	30.306 
21:30	13.3	13.3	13.3	67	4.4	0	1	270	0.00	30.308 
21:35	13.3	13.3	13.3	67	4.4	0	1	248	0.00	30.309 
21:40	13.3	13.3	13.3	67	4.4	0	1	248	0.00	30.309 
21:45	13.1	13.1	13.1	67	4.2	0	2	248	0.00	30.309 
21:50	13.1	13.1	13.1	67	4.2	0	1	248	0.00	30.309 
21:55	13.1	13.1	13.1	68	4.6	0	1	248	0.00	30.312 
22:00	13.1	13.1	13.1	68	4.6	0	2	248	0.00	30.313 
22:05	13.1	13.1	13.1	68	4.6	0	1	248	0.00	30.312 
22:10	12.9	12.9	12.9	68	4.4	0	1	248	0.00	30.313 
22:15	12.8	12.8	12.8	68	4.3	0	0	---	0.00	30.312 
22:20	12.8	12.8	12.8	69	4.6	0	0	---	0.00	30.314 
22:25	12.6	12.6	12.6	69	4.4	0	0	---	0.00	30.315 
22:30	12.4	12.4	12.4	69	4.2	0	0	---	0.00	30.318 
22:35	12.1	12.1	12.1	70	4.2	0	0	---	0.00	30.316 
22:40	12.1	12.1	12.1	70	4.2	0	1	248	0.00	30.317 
22:45	11.9	11.9	11.9	70	4.0	0	1	248	0.00	30.321 
22:50	11.9	11.9	11.9	70	4.0	0	0	---	0.00	30.322 
22:55	11.9	11.9	11.9	71	4.3	0	0	---	0.00	30.323 
23:00	11.7	11.7	11.7	71	4.1	0	0	---	0.00	30.329 
23:05	11.6	11.6	11.6	71	4.0	0	0	---	0.00	30.334 
23:10	11.6	11.6	11.6	71	4.0	0	0	---	0.00	30.336 
23:15	11.6	11.6	11.6	71	4.0	0	0	---	0.00	30.337 
23:20	11.6	11.6	11.6	72	4.4	0	0	---	0.00	30.340 
23:25	11.4	11.4	11.4	72	4.2	0	0	---	0.00	30.341 
23:30	11.4	11.4	11.4	72	4.2	0	0	---	0.00	30.342 
23:35	11.2	11.2	11.2	72	4.0	0	0	---	0.00	30.346 
23:40	11.2	11.2	11.2	72	4.0	0	0	---	0.00	30.350 
23:45	11.1	11.1	11.1	73	4.2	0	0	---	0.00	30.350 
23:50	10.9	10.9	10.9	73	4.0	0	0	---	0.00	30.349 
23:55	10.7	10.7	10.7	73	3.8	0	0	---	0.00	30.351 

CoCoRaHS
IN-AL-39
A2 Web Hosting
Creative Commons License
GoDaddy
Look for:

loaded 2017-12-11 14:10:04 • last modified 2010-11-18 10:43:29
Privacy PolicyDisclaimer
• wx.awcolley.com is powered by PmWiki v.2002016 •
• all content (unless otherwise noted) © 2017 A W Colley